首页
METAR-TAF:

METAR-TAF

机场 :

佩吉, 亞利桑那州, 美国

纬度: 36-55-14N, 经度: 111-26-53W, 海拔: 1314米

当前天气观测

该预报发布于59分钟前的21:53 UTC
风速4节,风向东北
温度 7°C
湿度 66%
气压 1023 hPa
能見度: 16.1公里
天空无云

METAR: KPGA 232153Z AUTO 05004KT 10SM CLR 07/01 A3020 RMK AO2 SLP222 T00720011 TSNO

时间: 15:52 (22:52 UTC)

预报

该预报发布于2小时和40分钟前的20:12 UTC
预报有效从23日的 20点(UTC)到 24日的 18点(UTC)
风速5节,风向多变
能見度: 10公里
散云层高于1500英尺
短暂存在
从 24日的 09点(UTC)到 24日的 11点(UTC)
多云层高于1500英尺
从 24日的 1100点(UTC)
风速3节,风向多变
能見度: 9.7公里
阴天层高于300英尺
轻雾

TAF: KPGA 232012Z 2320/2418 VRB05KT P6SM SCT015 TEMPO 2409/2411 BKN015 FM241100 VRB03KT 6SM BR OVC003

超过4000个机场的气象观测和天气预报(METAR&TAF报告)。

可查询的气象台以黄色和红色小点在地图上表示。

将鼠标移到小点上方,可查看气象台名称。

然后点击查看天气观测和预报。

如需切换地图:点击带黑十字的绿色按钮放大地图;点击带横线的绿色按钮缩小地图;或者点击绿色箭头查看邻近地区的地图。


METAR-TAF: